Hulbert, Michigan
Current Conditions -  °F | °C
As of 4:14 AM on Sunday 26 Oct 2014 (Local Time) from KERY Reporting Station
Clear Clear  
Wind Chill: 36°   Ceiling: Unl
Heat Index: 43°   Visibility: 10mi
Dew Point: 33°   Wind: 14mph
Humidity: 68%   Direction: 310°NW
Pressure: 29.81"   Gusts: 25mph
Location:  46.35°N, 85.15°W
Report Text: KERY 260814Z AUTO 31012G22KT 10SM CLR 06/01 A2981 RMK AO2 T00600005
Loading
Personal Weather Stations






























Interactive Weather Map
Tropical Storm Tracking
New forecast layout! Learn more

10-Day Weather Forecast

Advertisements
Track Severe Weather on mobile